createdAt,value
2018-04-29T00:00:36.073Z,95491.16
2018-04-29T00:03:03.598Z,95483.63
2018-04-29T00:05:31.028Z,95481.27
2018-04-29T00:07:58.392Z,95488.50
2018-04-29T00:10:26.698Z,95482.17
2018-04-29T00:12:53.861Z,95489.14
2018-04-29T00:15:20.869Z,95493.91
2018-04-29T00:17:48.225Z,95490.06
2018-04-29T00:20:15.773Z,95493.01
2018-04-29T00:22:43.344Z,95490.86
2018-04-29T00:25:11.332Z,95491.91
2018-04-29T00:34:24.281Z,95498.66
2018-04-29T00:36:51.551Z,95490.97
2018-04-29T00:39:18.790Z,95494.75
2018-04-29T00:41:46.834Z,95490.64
2018-04-29T00:44:14.226Z,95498.97
2018-04-29T00:46:41.916Z,95493.70
2018-04-29T00:49:09.594Z,95489.95
2018-04-29T00:51:48.570Z,95490.69
2018-04-29T00:54:15.510Z,95499.27
2018-04-29T00:56:42.492Z,95486.48
2018-04-29T00:59:10.188Z,95489.75
2018-04-29T01:01:37.135Z,95490.77
2018-04-29T01:04:05.202Z,95490.16
2018-04-29T01:06:32.759Z,95481.78
2018-04-29T01:09:00.204Z,95484.88
2018-04-29T01:11:27.017Z,95481.44
2018-04-29T01:13:55.090Z,95485.09
2018-04-29T01:16:22.502Z,95484.80
2018-04-29T01:18:49.251Z,95479.83
2018-04-29T01:21:16.870Z,95487.19
2018-04-29T01:23:44.082Z,95487.08
2018-04-29T01:26:11.549Z,95487.06
2018-04-29T01:28:38.754Z,95486.72
2018-04-29T01:31:05.660Z,95484.23
2018-04-29T01:33:32.838Z,95484.44
2018-04-29T01:36:00.396Z,95483.45
2018-04-29T01:38:27.971Z,95490.88
2018-04-29T01:40:54.979Z,95487.29
2018-04-29T01:43:23.022Z,95480.72
2018-04-29T01:45:51.092Z,95481.03
2018-04-29T01:48:18.168Z,95480.19
2018-04-29T01:50:45.683Z,95475.72
2018-04-29T01:53:12.721Z,95478.27
2018-04-29T01:55:39.845Z,95472.67
2018-04-29T01:58:06.834Z,95466.02
2018-04-29T02:00:33.869Z,95457.25
2018-04-29T02:03:02.187Z,95457.02
2018-04-29T02:05:29.143Z,95453.83
2018-04-29T02:07:56.200Z,95459.31
2018-04-29T02:10:24.834Z,95461.31
2018-04-29T02:12:52.061Z,95457.21
2018-04-29T02:15:18.712Z,95457.75
2018-04-29T02:17:47.257Z,95452.22
2018-04-29T02:20:15.437Z,95453.34
2018-04-29T02:22:43.202Z,95443.03
2018-04-29T02:25:10.164Z,95444.35
2018-04-29T02:27:37.505Z,95442.32
2018-04-29T02:30:04.799Z,95446.10
2018-04-29T02:32:32.414Z,95439.80
2018-04-29T02:34:59.685Z,95439.55
2018-04-29T02:37:26.718Z,95437.27
2018-04-29T02:39:54.243Z,95432.10
2018-04-29T02:42:21.556Z,95436.97
2018-04-29T02:44:49.020Z,95433.63
2018-04-29T02:47:17.253Z,95441.64
2018-04-29T02:49:44.820Z,95436.41
2018-04-29T02:52:11.707Z,95441.92
2018-04-29T02:54:38.940Z,95447.38
2018-04-29T02:57:06.994Z,95439.91
2018-04-29T02:59:34.322Z,95439.65
2018-04-29T03:02:01.254Z,95436.45
2018-04-29T03:04:29.084Z,95431.37
2018-04-29T03:06:58.079Z,95434.68
2018-04-29T03:09:26.407Z,95430.25
2018-04-29T03:11:54.305Z,95427.27
2018-04-29T03:14:21.439Z,95433.20
2018-04-29T03:16:48.507Z,95434.01
2018-04-29T03:19:15.359Z,95429.29
2018-04-29T03:21:43.409Z,95436.30
2018-04-29T03:24:11.899Z,95435.27
2018-04-29T03:26:39.674Z,95433.41
2018-04-29T03:29:06.451Z,95438.88
2018-04-29T03:31:33.131Z,95433.70
2018-04-29T03:34:00.318Z,95437.05
2018-04-29T03:36:28.167Z,95434.31
2018-04-29T03:38:55.037Z,95442.32
2018-04-29T03:41:21.698Z,95433.79
2018-04-29T03:43:49.241Z,95442.61
2018-04-29T03:46:16.734Z,95443.08
2018-04-29T03:48:43.393Z,95441.61
2018-04-29T03:51:10.584Z,95442.61
2018-04-29T03:53:37.218Z,95443.75
2018-04-29T03:56:04.275Z,95438.88
2018-04-29T03:58:44.160Z,95446.23
2018-04-29T04:01:22.937Z,95450.50
2018-04-29T04:04:02.426Z,95451.77
2018-04-29T04:06:30.938Z,95447.41
2018-04-29T04:08:58.655Z,95446.85
2018-04-29T04:11:25.538Z,95451.34
2018-04-29T04:13:53.174Z,95447.36
2018-04-29T04:16:20.635Z,95452.68
2018-04-29T04:18:47.971Z,95448.63
2018-04-29T04:21:15.964Z,95450.67
2018-04-29T04:23:43.284Z,95447.36
2018-04-29T04:26:11.034Z,95455.22
2018-04-29T04:28:38.671Z,95455.84
2018-04-29T04:31:06.262Z,95458.64
2018-04-29T04:33:33.470Z,95457.39
2018-04-29T04:36:01.319Z,95464.64
2018-04-29T04:38:28.439Z,95463.76
2018-04-29T04:40:57.219Z,95472.39
2018-04-29T04:43:25.400Z,95463.53
2018-04-29T04:45:54.336Z,95465.05
2018-04-29T04:48:22.856Z,95462.14
2018-04-29T04:50:50.677Z,95466.98
2018-04-29T04:53:19.335Z,95466.22
2018-04-29T04:55:47.009Z,95462.05
2018-04-29T04:58:15.783Z,95465.65
2018-04-29T05:00:43.554Z,95465.30
2018-04-29T05:03:12.683Z,95470.31
2018-04-29T05:05:40.315Z,95469.42
2018-04-29T05:08:10.811Z,95472.16
2018-04-29T05:10:38.385Z,95464.68
2018-04-29T05:13:07.205Z,95466.77
2018-04-29T05:15:35.811Z,95456.11
2018-04-29T05:18:05.485Z,95461.38
2018-04-29T05:20:34.193Z,95459.82
2018-04-29T05:23:03.207Z,95462.14
2018-04-29T05:25:31.523Z,95458.72
2018-04-29T05:27:58.892Z,95461.98
2018-04-29T05:30:26.628Z,95449.05
2018-04-29T05:32:54.585Z,95446.91
2018-04-29T05:35:23.108Z,95449.59
2018-04-29T05:37:50.113Z,95442.30
2018-04-29T05:40:20.178Z,95440.45
2018-04-29T05:42:48.749Z,95437.42
2018-04-29T05:45:18.162Z,95445.69
2018-04-29T05:47:45.569Z,95443.27
2018-04-29T05:50:12.869Z,95446.27
2018-04-29T05:52:40.764Z,95451.55
2018-04-29T05:55:09.617Z,95445.22
2018-04-29T05:57:37.722Z,95440.38
2018-04-29T06:00:05.982Z,95446.20
2018-04-29T06:02:34.098Z,95440.00
2018-04-29T06:05:01.130Z,95442.55
2018-04-29T06:07:28.635Z,95445.31
2018-04-29T06:09:56.468Z,95442.34
2018-04-29T06:12:23.932Z,95441.84
2018-04-29T06:14:52.135Z,95440.52
2018-04-29T06:17:19.920Z,95441.16
2018-04-29T06:19:47.154Z,95444.80
2018-04-29T06:22:15.448Z,95439.20
2018-04-29T06:24:43.773Z,95444.11
2018-04-29T06:27:11.344Z,95444.20
2018-04-29T06:29:38.368Z,95445.12
2018-04-29T06:32:06.045Z,95442.24
2018-04-29T06:34:33.729Z,95441.72
2018-04-29T06:37:01.492Z,95440.19
2018-04-29T06:39:29.058Z,95446.33
2018-04-29T06:41:57.500Z,95441.44
2018-04-29T06:44:24.951Z,95437.63
2018-04-29T06:46:53.133Z,95435.82
2018-04-29T06:49:21.680Z,95439.89
2018-04-29T06:51:49.092Z,95441.20
2018-04-29T06:54:18.146Z,95437.48
2018-04-29T06:56:46.289Z,95440.22
2018-04-29T06:59:15.258Z,95443.63
2018-04-29T07:01:43.306Z,95442.19
2018-04-29T07:04:10.931Z,95441.59
2018-04-29T07:06:39.623Z,95439.20
2018-04-29T07:09:10.650Z,95443.78
2018-04-29T07:11:39.600Z,95442.08
2018-04-29T07:14:08.674Z,95440.45
2018-04-29T07:16:35.675Z,95437.98
2018-04-29T07:19:03.735Z,95445.36
2018-04-29T07:21:31.139Z,95443.39
2018-04-29T07:23:59.254Z,95438.59
2018-04-29T07:26:27.561Z,95440.73
2018-04-29T07:28:55.720Z,95436.81
2018-04-29T07:31:23.715Z,95437.23
2018-04-29T07:33:51.123Z,95440.12
2018-04-29T07:36:18.788Z,95434.71
2018-04-29T07:38:47.559Z,95431.91
2018-04-29T07:41:15.554Z,95437.59
2018-04-29T07:43:43.037Z,95432.04
2018-04-29T07:46:10.471Z,95432.91
2018-04-29T07:48:37.423Z,95434.41
2018-04-29T07:51:05.716Z,95430.30
2018-04-29T07:53:32.858Z,95431.23
2018-04-29T07:55:59.937Z,95433.06
2018-04-29T07:58:27.706Z,95427.21
2018-04-29T08:00:54.599Z,95428.27
2018-04-29T08:03:22.936Z,95440.25
2018-04-29T08:05:50.672Z,95422.38
2018-04-29T08:08:17.911Z,95429.91
2018-04-29T08:10:46.637Z,95427.30
2018-04-29T08:13:14.958Z,95425.91
2018-04-29T08:15:44.296Z,95419.50
2018-04-29T08:18:15.895Z,95425.38
2018-04-29T08:20:43.552Z,95425.27
2018-04-29T08:23:11.037Z,95422.43
2018-04-29T08:25:38.101Z,95416.64
2018-04-29T08:28:06.923Z,95410.16
2018-04-29T08:30:34.431Z,95413.08
2018-04-29T08:33:03.041Z,95415.00
2018-04-29T08:35:32.533Z,95408.28
2018-04-29T08:37:59.826Z,95407.51
2018-04-29T08:40:26.862Z,95403.09
2018-04-29T08:42:54.735Z,95400.14
2018-04-29T08:45:22.486Z,95402.98
2018-04-29T08:47:49.668Z,95398.37
2018-04-29T08:50:18.825Z,95398.42
2018-04-29T08:52:48.100Z,95388.16
2018-04-29T08:55:17.165Z,95387.41
2018-04-29T08:57:44.741Z,95385.00
2018-04-29T09:00:11.942Z,95386.77
2018-04-29T09:02:39.667Z,95386.62
2018-04-29T09:05:08.476Z,95384.87
2018-04-29T09:07:36.303Z,95376.59
2018-04-29T09:10:03.886Z,95389.17
2018-04-29T09:12:31.661Z,95387.49
2018-04-29T09:14:59.368Z,95382.90
2018-04-29T09:17:27.661Z,95371.67
2018-04-29T09:19:57.152Z,95371.44
2018-04-29T09:22:24.356Z,95365.52
2018-04-29T09:24:51.679Z,95361.64
2018-04-29T09:27:20.090Z,95355.52
2018-04-29T09:29:49.593Z,95362.13
2018-04-29T09:32:18.608Z,95363.27
2018-04-29T09:34:46.052Z,95364.45
2018-04-29T09:37:14.313Z,95357.05
2018-04-29T09:39:42.632Z,95359.19
2018-04-29T09:42:09.702Z,95351.14
2018-04-29T09:44:37.485Z,95352.84
2018-04-29T09:47:06.585Z,95353.72
2018-04-29T09:49:34.655Z,95359.78
2018-04-29T09:52:03.306Z,95352.72
2018-04-29T09:54:32.177Z,95334.33
2018-04-29T09:57:00.194Z,95336.02
2018-04-29T09:59:27.773Z,95333.08
2018-04-29T10:01:55.941Z,95335.75
2018-04-29T10:04:23.049Z,95332.77
2018-04-29T10:06:51.493Z,95335.05
2018-04-29T10:09:19.345Z,95330.20
2018-04-29T10:11:47.402Z,95323.44
2018-04-29T10:14:15.133Z,95316.57
2018-04-29T10:16:42.823Z,95323.53
2018-04-29T10:19:12.046Z,95327.98
2018-04-29T10:21:41.360Z,95313.55
2018-04-29T10:24:09.203Z,95315.10
2018-04-29T10:26:37.185Z,95309.83
2018-04-29T10:29:05.035Z,95306.31
2018-04-29T10:31:33.963Z,95313.70
2018-04-29T10:34:02.082Z,95314.48
2018-04-29T10:36:30.250Z,95309.84
2018-04-29T10:39:00.082Z,95311.88
2018-04-29T10:41:27.883Z,95306.07
2018-04-29T10:43:55.369Z,95314.08
2018-04-29T10:46:24.682Z,95315.14
2018-04-29T10:51:39.240Z,95314.77
2018-04-29T10:54:07.328Z,95297.17
2018-04-29T10:56:36.707Z,95307.69
2018-04-29T10:59:05.216Z,95306.55
2018-04-29T11:01:33.679Z,95303.59
2018-04-29T11:04:01.856Z,95303.58
2018-04-29T11:06:28.840Z,95298.97
2018-04-29T11:08:58.685Z,95330.02
2018-04-29T11:11:26.495Z,95310.22
2018-04-29T11:13:55.148Z,95292.74
2018-04-29T11:16:23.691Z,95293.57
2018-04-29T11:18:50.983Z,95289.63
2018-04-29T11:21:20.736Z,95293.37
2018-04-29T11:23:49.693Z,95290.02
2018-04-29T11:26:18.172Z,95286.41
2018-04-29T11:28:47.093Z,95282.27
2018-04-29T11:31:14.884Z,95281.75
2018-04-29T11:33:42.272Z,95277.92
2018-04-29T11:36:13.082Z,95287.64
2018-04-29T11:38:40.555Z,95276.02
2018-04-29T11:41:09.550Z,95292.69
2018-04-29T11:43:39.513Z,95278.92
2018-04-29T11:46:07.115Z,95270.61
2018-04-29T11:48:38.363Z,95264.23
2018-04-29T11:51:06.444Z,95270.48
2018-04-29T11:53:34.523Z,95256.59
2018-04-29T11:56:02.044Z,95257.05
2018-04-29T11:58:30.903Z,95259.38
2018-04-29T12:00:59.458Z,95256.88
2018-04-29T12:03:26.905Z,95249.00
2018-04-29T12:05:54.511Z,95245.29
2018-04-29T12:08:22.730Z,95241.94
2018-04-29T12:10:51.815Z,95243.20
2018-04-29T12:13:19.798Z,95243.27
2018-04-29T12:15:49.718Z,95239.34
2018-04-29T12:18:17.689Z,95227.75
2018-04-29T12:20:45.799Z,95222.70
2018-04-29T12:23:13.696Z,95224.49
2018-04-29T12:25:42.701Z,95229.61
2018-04-29T12:28:11.166Z,95221.36
2018-04-29T12:30:39.471Z,95216.20
2018-04-29T12:33:08.908Z,95211.55
2018-04-29T12:35:37.479Z,95226.92
2018-04-29T12:38:05.478Z,95204.98
2018-04-29T12:40:32.117Z,95208.98
2018-04-29T12:43:00.392Z,95210.36
2018-04-29T12:45:28.692Z,95197.51
2018-04-29T12:47:56.109Z,95199.03
2018-04-29T12:50:23.512Z,95193.81
2018-04-29T12:52:51.412Z,95184.58
2018-04-29T12:55:18.323Z,95191.27
2018-04-29T12:57:46.528Z,95181.89
2018-04-29T13:00:15.028Z,95180.44
2018-04-29T13:02:43.236Z,95176.16
2018-04-29T13:05:12.088Z,95172.47
2018-04-29T13:07:40.557Z,95167.56
2018-04-29T13:10:08.760Z,95173.23
2018-04-29T13:12:37.108Z,95173.93
2018-04-29T13:15:05.928Z,95168.28
2018-04-29T13:17:34.773Z,95161.38
2018-04-29T13:22:38.194Z,95156.51
2018-04-29T13:25:05.661Z,95160.98
2018-04-29T13:27:34.779Z,95156.61
2018-04-29T13:30:03.736Z,95147.45
2018-04-29T13:32:32.113Z,95164.39
2018-04-29T13:34:59.832Z,95155.34
2018-04-29T13:37:28.238Z,95157.17
2018-04-29T13:39:56.044Z,95154.17
2018-04-29T13:42:23.376Z,95150.34
2018-04-29T13:44:52.456Z,95150.23
2018-04-29T13:47:20.661Z,95140.36
2018-04-29T13:49:48.528Z,95140.28
2018-04-29T13:52:17.189Z,95135.74
2018-04-29T13:54:45.713Z,95138.34
2018-04-29T13:57:13.166Z,95143.05
2018-04-29T13:59:40.726Z,95140.48
2018-04-29T14:02:08.740Z,95135.92
2018-04-29T14:04:36.123Z,95141.00
2018-04-29T14:08:39.719Z,95137.48
2018-04-29T14:11:07.964Z,95125.48
2018-04-29T14:13:36.727Z,95137.25
2018-04-29T14:16:04.741Z,95136.78
2018-04-29T14:21:13.928Z,95130.64
2018-04-29T14:23:42.153Z,95135.48
2018-04-29T14:26:10.943Z,95140.66
2018-04-29T14:28:39.057Z,95142.83
2018-04-29T14:31:07.460Z,95136.34
2018-04-29T14:33:35.651Z,95133.59
2018-04-29T14:36:05.696Z,95132.70
2018-04-29T14:38:34.657Z,95130.55
2018-04-29T14:41:02.379Z,95135.57
2018-04-29T14:43:31.636Z,95134.06
2018-04-29T14:45:59.151Z,95127.94
2018-04-29T14:48:26.916Z,95129.67
2018-04-29T14:50:54.944Z,95119.82
2018-04-29T14:53:23.752Z,95126.80
2018-04-29T14:55:50.862Z,95127.13
2018-04-29T14:58:18.239Z,95119.05
2018-04-29T15:00:47.050Z,95119.61
2018-04-29T15:09:15.274Z,95120.02
2018-04-29T15:11:43.092Z,95121.27
2018-04-29T15:14:11.494Z,95123.48
2018-04-29T15:16:38.758Z,95116.53
2018-04-29T15:19:06.545Z,95117.11
2018-04-29T15:21:34.285Z,95113.63
2018-04-29T15:24:02.245Z,95106.77
2018-04-29T15:26:30.701Z,95094.23
2018-04-29T15:28:57.944Z,95106.77
2018-04-29T15:31:26.209Z,95094.75
2018-04-29T15:33:53.876Z,95100.84
2018-04-29T15:36:21.836Z,95097.98
2018-04-29T15:38:49.073Z,95096.01
2018-04-29T15:41:19.236Z,95098.39
2018-04-29T15:43:48.417Z,95090.65
2018-04-29T15:46:17.602Z,95095.55
2018-04-29T15:48:47.303Z,95094.10
2018-04-29T15:51:15.665Z,95092.95
2018-04-29T15:53:43.467Z,95096.34
2018-04-29T15:56:10.372Z,95085.73
2018-04-29T15:58:38.213Z,95085.78
2018-04-29T16:01:06.040Z,95093.33
2018-04-29T16:03:34.855Z,95087.71
2018-04-29T16:06:01.708Z,95097.72
2018-04-29T16:08:30.280Z,95096.27
2018-04-29T16:10:57.115Z,95098.58
2018-04-29T16:13:24.933Z,95093.37
2018-04-29T16:15:52.425Z,95092.41
2018-04-29T16:18:19.368Z,95090.19
2018-04-29T16:20:46.535Z,95089.34
2018-04-29T16:23:13.395Z,95092.81
2018-04-29T16:25:43.952Z,95094.42
2018-04-29T16:28:11.889Z,95100.19
2018-04-29T16:30:40.723Z,95102.21
2018-04-29T16:33:08.222Z,95101.47
2018-04-29T16:35:37.070Z,95102.92
2018-04-29T16:38:05.768Z,95105.06
2018-04-29T16:40:32.859Z,95105.06
2018-04-29T16:43:01.409Z,95099.45
2018-04-29T16:45:29.892Z,95100.50
2018-04-29T16:47:58.214Z,95098.97
2018-04-29T16:50:25.358Z,95103.11
2018-04-29T16:52:53.563Z,95100.97
2018-04-29T16:55:22.220Z,95101.57
2018-04-29T16:57:50.452Z,95109.30
2018-04-29T17:00:17.924Z,95105.02
2018-04-29T17:02:45.551Z,95113.88
2018-04-29T17:05:13.661Z,95111.14
2018-04-29T17:07:41.046Z,95114.91
2018-04-29T17:10:09.472Z,95110.31
2018-04-29T17:12:39.129Z,95112.72
2018-04-29T17:15:07.331Z,95118.06
2018-04-29T17:17:35.781Z,95108.68
2018-04-29T17:20:03.285Z,95120.67
2018-04-29T17:22:31.649Z,95129.03
2018-04-29T17:24:59.845Z,95128.63
2018-04-29T17:27:27.169Z,95131.63
2018-04-29T17:29:54.411Z,95139.00
2018-04-29T17:32:24.569Z,95152.05
2018-04-29T17:34:53.436Z,95151.91
2018-04-29T17:37:20.724Z,95150.47
2018-04-29T17:39:49.275Z,95146.74
2018-04-29T17:42:16.774Z,95149.34
2018-04-29T17:44:48.341Z,95151.59
2018-04-29T17:47:16.148Z,95148.79
2018-04-29T17:49:44.681Z,95154.42
2018-04-29T17:52:16.573Z,95155.60
2018-04-29T17:54:44.603Z,95155.70
2018-04-29T17:57:11.869Z,95161.50
2018-04-29T17:59:39.524Z,95159.77
2018-04-29T18:02:07.699Z,95170.97
2018-04-29T18:04:35.471Z,95182.25
2018-04-29T18:07:03.603Z,95172.78
2018-04-29T18:09:33.050Z,95182.75
2018-04-29T18:12:00.642Z,95186.83
2018-04-29T18:14:29.172Z,95181.78
2018-04-29T18:16:58.690Z,95188.95
2018-04-29T18:19:27.436Z,95193.22
2018-04-29T18:21:54.213Z,95194.34
2018-04-29T18:24:24.655Z,95194.69
2018-04-29T18:26:52.194Z,95207.45
2018-04-29T18:29:19.878Z,95202.34
2018-04-29T18:31:48.172Z,95203.02
2018-04-29T18:34:18.126Z,95204.95
2018-04-29T18:36:47.419Z,95203.53
2018-04-29T18:39:16.090Z,95205.51
2018-04-29T18:41:43.785Z,95210.46
2018-04-29T18:44:10.607Z,95212.24
2018-04-29T18:46:38.937Z,95212.72
2018-04-29T18:49:05.882Z,95211.00
2018-04-29T18:51:34.332Z,95211.16
2018-04-29T18:54:02.001Z,95209.91
2018-04-29T18:56:30.139Z,95206.31
2018-04-29T18:58:57.816Z,95209.22
2018-04-29T19:01:25.531Z,95207.53
2018-04-29T19:03:53.229Z,95206.95
2018-04-29T19:06:22.014Z,95210.64
2018-04-29T19:08:50.301Z,95206.48
2018-04-29T19:11:17.637Z,95207.77
2018-04-29T19:13:45.987Z,95221.00
2018-04-29T19:16:14.431Z,95217.23
2018-04-29T19:18:42.698Z,95220.94
2018-04-29T19:21:09.421Z,95214.52
2018-04-29T19:23:41.248Z,95215.51
2018-04-29T19:26:12.592Z,95215.45
2018-04-29T19:28:44.156Z,95211.77
2018-04-29T19:31:16.969Z,95215.84
2018-04-29T19:33:51.040Z,95210.02
2018-04-29T19:36:19.363Z,95218.83
2018-04-29T19:38:48.502Z,95223.53
2018-04-29T19:41:18.290Z,95220.42
2018-04-29T19:43:49.997Z,95217.59
2018-04-29T19:46:19.152Z,95213.66
2018-04-29T19:48:47.682Z,95216.34
2018-04-29T19:51:19.624Z,95220.63
2018-04-29T19:53:47.498Z,95224.20
2018-04-29T19:56:24.059Z,95224.72
2018-04-29T19:58:55.113Z,95225.11
2018-04-29T20:01:25.143Z,95223.56
2018-04-29T20:03:55.252Z,95222.23
2018-04-29T20:09:04.138Z,95225.04
2018-04-29T20:14:27.085Z,95226.58
2018-04-29T20:16:56.363Z,95231.73
2018-04-29T20:19:29.554Z,95233.81
2018-04-29T20:21:59.261Z,95235.88
2018-04-29T20:24:28.713Z,95229.95
2018-04-29T20:26:56.073Z,95230.43
2018-04-29T20:29:24.319Z,95229.41
2018-04-29T20:31:53.179Z,95234.27
2018-04-29T20:34:28.321Z,95237.16
2018-04-29T20:36:59.774Z,95241.11
2018-04-29T20:39:33.295Z,95243.05
2018-04-29T20:42:12.843Z,95241.25
2018-04-29T20:44:42.954Z,95244.27
2018-04-29T20:47:15.583Z,95244.87
2018-04-29T20:49:44.413Z,95240.47
2018-04-29T20:52:18.958Z,95248.50
2018-04-29T20:54:47.177Z,95249.20
2018-04-29T20:57:15.873Z,95246.91
2018-04-29T20:59:46.087Z,95250.58
2018-04-29T21:02:14.269Z,95254.72
2018-04-29T21:04:43.361Z,95257.29
2018-04-29T21:07:10.861Z,95257.73
2018-04-29T21:09:39.019Z,95262.31
2018-04-29T21:12:09.004Z,95263.53
2018-04-29T21:14:38.513Z,95263.77
2018-04-29T21:17:12.587Z,95258.23
2018-04-29T21:19:43.231Z,95264.77
2018-04-29T21:22:23.719Z,95262.94
2018-04-29T21:24:56.335Z,95275.16
2018-04-29T21:27:25.663Z,95273.54
2018-04-29T21:30:04.123Z,95280.79
2018-04-29T21:32:32.294Z,95273.97
2018-04-29T21:35:09.795Z,95275.58
2018-04-29T21:37:43.923Z,95279.68
2018-04-29T21:40:12.625Z,95278.26
2018-04-29T21:42:44.704Z,95289.36
2018-04-29T21:45:16.955Z,95284.67
2018-04-29T21:47:52.368Z,95284.27
2018-04-29T21:50:22.788Z,95277.84
2018-04-29T21:52:58.864Z,95276.10
2018-04-29T21:55:34.327Z,95278.75
2018-04-29T21:58:12.184Z,95275.89
2018-04-29T22:00:47.976Z,95280.38
2018-04-29T22:03:18.558Z,95276.22
2018-04-29T22:05:56.483Z,95287.81
2018-04-29T22:08:44.290Z,95267.75
2018-04-29T22:11:20.463Z,95272.84
2018-04-29T22:13:52.725Z,95274.06
2018-04-29T22:16:21.841Z,95272.14
2018-04-29T22:19:01.387Z,95273.16
2018-04-29T22:21:29.154Z,95274.08
2018-04-29T22:23:57.993Z,95277.13
2018-04-29T22:26:30.986Z,95277.32
2018-04-29T22:29:01.827Z,95284.85
2018-04-29T22:31:36.810Z,95286.17
2018-04-29T22:34:09.569Z,95284.56
2018-04-29T22:36:38.340Z,95277.42
2018-04-29T22:39:19.892Z,95270.52
2018-04-29T22:41:50.001Z,95271.94
2018-04-29T22:44:45.969Z,95268.06
2018-04-29T22:47:17.774Z,95266.63
2018-04-29T22:49:48.494Z,95270.81
2018-04-29T22:52:16.173Z,95266.62
2018-04-29T22:54:51.452Z,95261.96
2018-04-29T22:57:28.240Z,95261.85
2018-04-29T22:59:56.080Z,95264.30
2018-04-29T23:02:26.042Z,95260.21
2018-04-29T23:04:54.342Z,95260.75
2018-04-29T23:07:24.905Z,95260.00
2018-04-29T23:09:54.999Z,95262.36
2018-04-29T23:12:30.223Z,95252.17
2018-04-29T23:14:57.898Z,95252.37
2018-04-29T23:17:33.797Z,95257.05
2018-04-29T23:20:08.029Z,95255.23
2018-04-29T23:22:36.776Z,95252.37
2018-04-29T23:25:05.273Z,95247.92
2018-04-29T23:27:36.751Z,95246.16
2018-04-29T23:30:05.806Z,95247.70
2018-04-29T23:32:36.635Z,95247.59
2018-04-29T23:35:06.011Z,95228.84
2018-04-29T23:37:37.228Z,95234.80
2018-04-29T23:40:05.585Z,95233.67
2018-04-29T23:42:34.461Z,95229.13
2018-04-29T23:45:02.663Z,95231.23
2018-04-29T23:47:34.509Z,95225.34
2018-04-29T23:50:04.895Z,95223.21
2018-04-29T23:52:35.481Z,95227.69
2018-04-29T23:55:03.878Z,95226.25
2018-04-29T23:57:33.579Z,95227.48
